Aviation Digital Data Service (ADDS)

Output produced by METARs form (0402 UTC 23 September 2017)
found at http://www.aviationweather.gov/adds/metars/
 
KMIV 230354Z AUTO 34004KT 10SM BKN050 OVC070 22/17 A2998 RMK AO2 SLP152 T02170167 TSNO
KMIV 222330Z 2300/2324 00000KT P6SM SCT060 
     TEMPO 2301/2305 BKN060 
     FM231500 36008KT P6SM FEW050 
     FM232100 VRB03KT P6SM SKC